Thompson, ND (58278)

6:16 PM CST on February 11, 2016 (GMT -0600)
APRSWXNET | | Change Station
CLOSE
Current Station
Personal Weather Station
Location: Grand Forks Air Force Base, ND
Elevation: 846 ft
Nearby Weather Stations
Active Advisory: Wind Chill Advisory

Elev 846 ft 47.89 °N, 97.16 °W | Updated 20 minutes ago

Overcast
Overcast
14 °F
Feels Like 14 °F
N
2
Wind Variable Wind from North
Gusts 5.0 mph

Today
High -- | Low -- °F
--% Chance of Precip.
Yesterday
High -- | Low -- °F
Precip. -- in
Pressure 30.26 in
Visibility 10.0 miles
Clouds Scattered Clouds 2100 ft
Overcast 4400 ft
Windchill 14 °F
Dew Point 10 °F
Humidity 84%
Rainfall in
Snow Depth Not available.
7:41 AM 5:44 PM
Waxing Crescent, 15% visible
SPECI KGFK 120002Z 36007KT 10SM SCT021 OVC044 M10/M13 A3026 RMK AO2 SNE2355 P0000 T11001133
Pressure 30.26 in
Visibility 10.0 miles
Clouds Scattered Clouds 2100 ft
Overcast 4400 ft
Windchill 14 °F
Dew Point 10 °F
Humidity 84%
Rainfall in
Snow Depth Not available.
7:41 AM 5:44 PM
Waxing Crescent, 15% visible
SPECI KGFK 120002Z 36007KT 10SM SCT021 OVC044 M10/M13 A3026 RMK AO2 SNE2355 P0000 T11001133

10-Day Weather Forecast

Almanac

Astronomy

Feb. 11, 2016 Rise Set
Actual Time
Civil Twilight
Nautical Twilight
Astronomical Twilight
Moon
Length of Visible Light
Length of Day
Tomorrow will be .
, % of the Moon is Illuminated

Today's Extremes

State Highs State Lows

Community

WunderPhotos

Upload Photos

1,892,186 photos uploaded!

WunderBlog® & News

Nearby

Air Quality

  Air Quality AQ Index Pollutant
Not available.

Snow Depth

Station Depth Elevation

Earthquake Activity

City Distance Mag. Time & Date
Minimum magnitude displayed is 2.5.

Coastal Water Temperatures

Place Temperature

Stations

Nearby Weather Stations

Station Location Temp. Windchill Dew Point Humidity Wind Precip. Elev Updated Type
                   

Watches & Warnings

Wind Chill Advisory
Issued: 3:19 PM CST Feb. 11, 2016 – National Weather Service

... Wind Chill Advisory in effect from midnight tonight to noon
CST Friday...

The National Weather Service in Grand Forks has issued a Wind
Chill Advisory... which is in effect from midnight tonight to noon
CST Friday.

* Locations... northeastern North Dakota and northwestern Minnesota

* timing... cold air will sink south along with a north wind of 10
to 20 mph after midnight and continuing into midday Friday.

* Wind chill readings... 25 below to 35 below.

Precautionary/preparedness actions...

A Wind Chill Advisory means that very cold air and strong winds
will combine to generate low wind chills. This will result in
frost bite and lead to hypothermia if precautions are not taken.
If you must venture outdoors... make sure you wear a hat and
gloves.



Dtr